Airfield :
LOGIN :

Register | Disclaimer

   EN    FR    IT 

 










Legend :    VFR   Marginal VFR   IFR   Intensive IFR   Very Intensive IFR
Visi :
Ceiling :
>= 8 km
>= 3000ft
5 to 8 km
1000 to 3000 ft
1500m to 5 km
500 to 1000 ft
800 to 1500m
200 to 500 ft
< 800m
< 200 ft
Symbols :   Thunderstorms  Fog  Heavy snow  Heavy precipitations  Wind > 20 kt
SIGMETs :     Misc.  Thunderstorms  Icing  Turbulence  Mountain Waves  Volcanic Ashes






- Airport Elevation : 290 ft
- IATA code : ACI


EGJA - Alderney

CURRENT METAR :
  • 111520Z 04010KT 5000 HZ NSC 24/18 Q1013

EXPIRED METARs :
  • 111450Z 04008KT 4000 HZ NSC 24/17 Q1014
  • 111420Z 04010KT 4000 HZ NSC 24/18 Q1014
  • 111350Z 04008KT 4000 HZ NSC 24/18 Q1014
  • 111320Z 03007KT 4000 HZ NSC 25/18 Q1014

TAF TAF EGJA
Valid from the 11 at 15:00 until the 12 at 00:00 UTC


111401Z 1115/1200 04008KT 4000 HZ NSC
TEMPO 1115/1200 8000 NSW



MET'MAP, your aeronautical weather chart ! - Copyright ORBIFLY December 2007 - Disclaimer

ORBIFLY MET'MAP TEAM :

Programming & Development : Alexandra Zaïnal
Concept & original design : Baudouin d'Aumeries
Assistance for programming : Marc-Olivier Méhu
Technical & hardware support : Manuel Goepfert

Contact : metmap@orbifly.com




SOURCES & CREDITS :

   NOAA